createdAt,value
2023-05-22T00:01:37.795Z,88.59
2023-05-22T00:04:06.404Z,88.76
2023-05-22T00:06:34.967Z,89.50
2023-05-22T00:09:03.487Z,89.46
2023-05-22T00:11:31.825Z,89.52
2023-05-22T00:14:00.150Z,90.17
2023-05-22T00:16:28.667Z,90.00
2023-05-22T00:19:00.085Z,89.30
2023-05-22T00:21:28.995Z,89.58
2023-05-22T00:23:57.247Z,89.50
2023-05-22T00:26:26.488Z,89.27
2023-05-22T00:28:55.753Z,89.93
2023-05-22T00:31:24.448Z,90.30
2023-05-22T00:33:52.819Z,90.50
2023-05-22T00:36:22.489Z,90.27
2023-05-22T00:38:50.933Z,90.95
2023-05-22T00:41:19.411Z,89.73
2023-05-22T00:43:47.912Z,93.18
2023-05-22T00:46:21.351Z,95.17
2023-05-22T00:48:50.100Z,96.60
2023-05-22T00:51:18.413Z,97.38
2023-05-22T00:53:48.780Z,97.31
2023-05-22T00:56:17.526Z,97.21
2023-05-22T00:58:46.177Z,97.00
2023-05-22T01:01:15.626Z,97.64
2023-05-22T01:03:44.925Z,96.69
2023-05-22T01:06:15.010Z,98.60
2023-05-22T01:08:43.706Z,100.00
2023-05-22T01:11:19.420Z,99.89
2023-05-22T01:13:56.267Z,100.00
2023-05-22T01:16:31.097Z,99.77
2023-05-22T01:19:06.357Z,100.00
2023-05-22T01:21:40.231Z,99.86
2023-05-22T01:24:43.477Z,100.00
2023-05-22T01:27:57.100Z,100.00
2023-05-22T01:30:58.583Z,100.00
2023-05-22T01:33:32.881Z,100.00
2023-05-22T01:36:02.652Z,100.00
2023-05-22T01:38:32.478Z,100.00
2023-05-22T01:41:01.031Z,100.00
2023-05-22T01:43:29.543Z,100.00
2023-05-22T01:45:59.452Z,100.00
2023-05-22T01:48:28.565Z,100.00
2023-05-22T01:51:01.317Z,100.00
2023-05-22T01:53:37.491Z,100.00
2023-05-22T01:56:11.377Z,100.00
2023-05-22T01:58:46.303Z,100.00
2023-05-22T02:01:18.711Z,100.00
2023-05-22T02:03:48.356Z,100.00
2023-05-22T02:06:20.564Z,100.00
2023-05-22T02:08:50.234Z,100.00
2023-05-22T02:11:21.542Z,100.00
2023-05-22T02:13:50.754Z,100.00
2023-05-22T02:16:22.217Z,100.00
2023-05-22T02:18:51.397Z,100.00
2023-05-22T02:21:19.968Z,100.00
2023-05-22T02:23:48.310Z,100.00
2023-05-22T02:26:16.633Z,100.00
2023-05-22T02:28:44.988Z,100.00
2023-05-22T02:31:13.423Z,100.00
2023-05-22T02:33:43.402Z,100.00
2023-05-22T02:36:13.893Z,100.00
2023-05-22T02:38:42.296Z,100.00
2023-05-22T02:41:10.691Z,100.00
2023-05-22T02:43:39.125Z,100.00
2023-05-22T02:46:07.575Z,100.00
2023-05-22T02:48:36.272Z,100.00
2023-05-22T02:51:06.227Z,100.00
2023-05-22T02:53:35.458Z,100.00
2023-05-22T02:56:03.936Z,100.00
2023-05-22T02:58:32.262Z,100.00
2023-05-22T03:01:00.761Z,100.00
2023-05-22T03:03:29.528Z,100.00
2023-05-22T03:05:58.872Z,100.00
2023-05-22T03:08:29.689Z,100.00
2023-05-22T03:10:59.229Z,100.00
2023-05-22T03:13:27.571Z,100.00
2023-05-22T03:15:55.989Z,100.00
2023-05-22T03:18:27.286Z,100.00
2023-05-22T03:20:56.804Z,100.00
2023-05-22T03:23:25.719Z,100.00
2023-05-22T03:25:56.941Z,100.00
2023-05-22T03:28:28.704Z,100.00
2023-05-22T03:30:57.031Z,100.00
2023-05-22T03:33:29.147Z,100.00
2023-05-22T03:35:57.605Z,100.00
2023-05-22T03:38:26.334Z,100.00
2023-05-22T03:40:56.123Z,100.00
2023-05-22T03:43:25.682Z,100.00
2023-05-22T03:45:54.053Z,100.00
2023-05-22T03:48:22.530Z,100.00
2023-05-22T03:50:52.742Z,100.00
2023-05-22T03:53:21.222Z,100.00
2023-05-22T03:55:49.553Z,100.00
2023-05-22T03:58:19.250Z,100.00
2023-05-22T04:00:47.567Z,99.51
2023-05-22T04:03:19.892Z,98.26
2023-05-22T04:05:48.597Z,99.44
2023-05-22T04:08:16.909Z,99.12
2023-05-22T04:10:46.651Z,97.22
2023-05-22T04:13:17.027Z,97.21
2023-05-22T04:15:47.051Z,97.21
2023-05-22T04:18:15.626Z,97.82
2023-05-22T04:20:43.886Z,97.84
2023-05-22T04:23:13.306Z,96.79
2023-05-22T04:25:41.634Z,96.06
2023-05-22T04:28:10.029Z,95.14
2023-05-22T04:30:40.518Z,95.55
2023-05-22T04:33:10.679Z,95.91
2023-05-22T04:35:40.727Z,97.68
2023-05-22T04:38:09.188Z,99.24
2023-05-22T04:40:38.223Z,100.00
2023-05-22T04:43:07.738Z,100.00
2023-05-22T04:45:35.950Z,96.75
2023-05-22T04:48:04.557Z,94.15
2023-05-22T04:50:38.942Z,93.27
2023-05-22T04:53:07.750Z,94.23
2023-05-22T04:55:37.037Z,96.50
2023-05-22T04:58:05.872Z,97.08
2023-05-22T05:00:34.497Z,97.61
2023-05-22T05:03:03.037Z,98.87
2023-05-22T05:05:31.810Z,98.93
2023-05-22T05:08:02.510Z,100.00
2023-05-22T05:10:30.845Z,99.87
2023-05-22T05:12:59.261Z,99.60
2023-05-22T05:15:28.202Z,97.56
2023-05-22T05:17:56.612Z,97.56
2023-05-22T05:20:25.053Z,94.96
2023-05-22T05:22:53.485Z,94.94
2023-05-22T05:25:23.590Z,94.06
2023-05-22T05:27:52.065Z,91.76
2023-05-22T05:30:21.729Z,89.25
2023-05-22T05:33:22.362Z,85.82
2023-05-22T05:36:16.350Z,86.19
2023-05-22T05:38:46.346Z,87.06
2023-05-22T05:41:19.117Z,88.10
2023-05-22T05:43:52.107Z,89.82
2023-05-22T05:46:20.773Z,90.13
2023-05-22T05:48:49.102Z,89.00
2023-05-22T05:51:17.446Z,88.44
2023-05-22T05:53:45.903Z,86.90
2023-05-22T05:56:15.053Z,88.01
2023-05-22T05:58:45.180Z,89.41
2023-05-22T06:01:47.235Z,88.85
2023-05-22T06:04:24.599Z,89.96
2023-05-22T06:06:53.958Z,88.47
2023-05-22T06:09:28.072Z,85.59
2023-05-22T06:12:15.912Z,87.31
2023-05-22T06:14:47.918Z,87.29
2023-05-22T06:17:16.905Z,86.91
2023-05-22T06:19:46.435Z,85.34
2023-05-22T06:22:16.653Z,82.15
2023-05-22T06:24:47.934Z,81.21
2023-05-22T06:27:22.681Z,80.91
2023-05-22T06:29:52.890Z,82.03
2023-05-22T06:32:21.588Z,79.87
2023-05-22T06:34:52.304Z,77.25
2023-05-22T06:37:21.970Z,78.93
2023-05-22T06:39:50.976Z,79.38
2023-05-22T06:42:54.601Z,79.40
2023-05-22T06:45:56.336Z,78.89
2023-05-22T06:48:24.707Z,77.47
2023-05-22T06:51:04.241Z,77.05
2023-05-22T06:53:32.851Z,78.56
2023-05-22T06:56:01.552Z,76.69
2023-05-22T06:58:45.055Z,80.25
2023-05-22T07:01:18.558Z,78.31
2023-05-22T07:04:01.358Z,77.54
2023-05-22T07:06:48.606Z,75.72
2023-05-22T07:09:17.722Z,75.68
2023-05-22T07:11:46.540Z,76.47
2023-05-22T07:14:18.099Z,74.75
2023-05-22T07:16:48.776Z,75.17
2023-05-22T07:19:22.811Z,72.49
2023-05-22T07:21:51.537Z,73.90
2023-05-22T07:24:22.345Z,74.98
2023-05-22T07:26:51.707Z,73.43
2023-05-22T07:29:21.304Z,72.01
2023-05-22T07:31:55.163Z,72.65
2023-05-22T07:34:31.952Z,71.13
2023-05-22T07:37:01.066Z,72.59
2023-05-22T07:39:29.503Z,73.31
2023-05-22T07:41:59.445Z,71.82
2023-05-22T07:44:30.053Z,70.85
2023-05-22T07:46:59.716Z,71.59
2023-05-22T07:49:30.173Z,71.26
2023-05-22T07:51:58.512Z,70.19
2023-05-22T07:54:27.531Z,68.70
2023-05-22T07:56:57.535Z,69.27
2023-05-22T07:59:29.127Z,68.29
2023-05-22T08:02:02.192Z,65.86
2023-05-22T08:04:31.036Z,65.79
2023-05-22T08:06:59.404Z,66.41
2023-05-22T08:09:27.779Z,64.64
2023-05-22T08:11:56.010Z,68.63
2023-05-22T08:14:25.540Z,67.36
2023-05-22T08:16:53.904Z,69.92
2023-05-22T08:19:23.741Z,66.70
2023-05-22T08:21:52.969Z,68.02
2023-05-22T08:24:22.416Z,66.59
2023-05-22T08:26:50.706Z,68.59
2023-05-22T08:29:19.077Z,69.72
2023-05-22T08:31:47.346Z,67.92
2023-05-22T08:34:15.683Z,68.05
2023-05-22T08:36:45.277Z,66.10
2023-05-22T08:39:14.492Z,66.29
2023-05-22T08:41:43.945Z,67.17
2023-05-22T08:44:13.401Z,64.19
2023-05-22T08:46:44.330Z,65.05
2023-05-22T08:49:14.221Z,66.45
2023-05-22T08:51:43.540Z,64.49
2023-05-22T08:54:14.275Z,66.07
2023-05-22T08:56:52.849Z,64.03
2023-05-22T08:59:25.057Z,65.04
2023-05-22T09:01:53.906Z,66.40
2023-05-22T09:04:24.232Z,62.67
2023-05-22T09:06:52.970Z,62.39
2023-05-22T09:09:22.798Z,62.88
2023-05-22T09:11:51.364Z,65.69
2023-05-22T09:14:21.042Z,62.48
2023-05-22T09:16:51.213Z,61.97
2023-05-22T09:19:19.893Z,63.11
2023-05-22T09:21:48.701Z,59.67
2023-05-22T09:24:17.023Z,59.26
2023-05-22T09:26:47.153Z,60.66
2023-05-22T09:29:15.511Z,57.99
2023-05-22T09:31:44.923Z,58.89
2023-05-22T09:34:15.829Z,57.89
2023-05-22T09:36:44.851Z,60.31
2023-05-22T09:39:13.342Z,58.99
2023-05-22T09:41:42.843Z,60.61
2023-05-22T09:44:17.071Z,59.04
2023-05-22T09:46:47.780Z,58.60
2023-05-22T09:49:17.253Z,59.12
2023-05-22T09:51:48.909Z,56.35
2023-05-22T09:54:17.989Z,54.75
2023-05-22T09:56:50.230Z,55.14
2023-05-22T09:59:23.614Z,53.63
2023-05-22T10:01:54.100Z,54.93
2023-05-22T10:04:25.450Z,54.17
2023-05-22T10:06:55.394Z,52.06
2023-05-22T10:09:30.686Z,55.71
2023-05-22T10:12:04.143Z,52.22
2023-05-22T10:14:35.952Z,54.18
2023-05-22T10:17:06.983Z,52.00
2023-05-22T10:19:39.657Z,54.23
2023-05-22T10:22:10.238Z,53.64
2023-05-22T10:24:41.215Z,52.36
2023-05-22T10:27:09.423Z,53.29
2023-05-22T10:29:46.014Z,52.63
2023-05-22T10:32:20.462Z,51.94
2023-05-22T10:35:05.976Z,49.63
2023-05-22T10:37:44.957Z,51.93
2023-05-22T10:40:15.901Z,52.98
2023-05-22T10:45:15.672Z,48.38
2023-05-22T10:47:44.062Z,48.26
2023-05-22T10:50:13.204Z,49.48
2023-05-22T10:52:41.696Z,48.97
2023-05-22T10:55:11.849Z,49.78
2023-05-22T10:57:40.769Z,50.33
2023-05-22T11:00:11.528Z,49.57
2023-05-22T11:02:43.446Z,49.78
2023-05-22T11:05:36.497Z,52.63
2023-05-22T11:08:37.621Z,48.45
2023-05-22T11:11:14.490Z,48.88
2023-05-22T11:13:43.752Z,47.66
2023-05-22T11:16:12.510Z,48.25
2023-05-22T11:18:42.220Z,48.27
2023-05-22T11:21:13.675Z,48.00
2023-05-22T11:23:42.655Z,48.56
2023-05-22T11:26:25.604Z,45.75
2023-05-22T11:28:56.695Z,48.00
2023-05-22T11:31:26.493Z,49.57
2023-05-22T11:33:56.328Z,48.14
2023-05-22T11:36:26.168Z,49.37
2023-05-22T11:38:59.676Z,48.97
2023-05-22T11:41:33.705Z,50.24
2023-05-22T11:44:02.692Z,49.06
2023-05-22T11:46:31.113Z,48.13
2023-05-22T11:49:01.160Z,50.11
2023-05-22T11:51:29.685Z,48.21
2023-05-22T11:53:58.838Z,47.91
2023-05-22T11:56:27.407Z,46.58
2023-05-22T11:58:55.754Z,47.41
2023-05-22T12:01:24.169Z,46.25
2023-05-22T12:03:52.587Z,45.77
2023-05-22T12:06:22.393Z,45.25
2023-05-22T12:08:51.060Z,46.67
2023-05-22T12:11:19.411Z,46.46
2023-05-22T12:13:52.110Z,47.41
2023-05-22T12:16:21.879Z,45.23
2023-05-22T12:18:53.775Z,45.92
2023-05-22T12:21:23.633Z,47.92
2023-05-22T12:23:52.886Z,47.78
2023-05-22T12:26:21.502Z,48.44
2023-05-22T12:28:53.471Z,49.43
2023-05-22T12:31:22.495Z,46.95
2023-05-22T12:33:50.964Z,48.21
2023-05-22T12:36:19.265Z,46.72
2023-05-22T12:38:48.917Z,46.71
2023-05-22T12:41:17.265Z,46.85
2023-05-22T12:43:51.387Z,46.22
2023-05-22T12:46:20.081Z,45.37
2023-05-22T12:48:48.340Z,45.84
2023-05-22T12:51:19.301Z,47.02
2023-05-22T12:53:49.715Z,45.54
2023-05-22T12:56:18.108Z,46.84
2023-05-22T12:58:46.468Z,46.51
2023-05-22T13:01:15.022Z,47.18
2023-05-22T13:03:43.416Z,48.35
2023-05-22T13:06:12.391Z,47.73
2023-05-22T13:08:40.712Z,47.63
2023-05-22T13:11:10.709Z,45.37
2023-05-22T13:13:39.247Z,46.46
2023-05-22T13:16:07.552Z,48.24
2023-05-22T13:18:35.925Z,49.15
2023-05-22T13:21:04.366Z,46.44
2023-05-22T13:23:32.681Z,48.37
2023-05-22T13:26:02.185Z,49.86
2023-05-22T13:28:31.884Z,51.21
2023-05-22T13:31:00.191Z,51.62
2023-05-22T13:33:28.594Z,53.36
2023-05-22T13:35:56.895Z,53.06
2023-05-22T13:38:25.124Z,54.98
2023-05-22T13:40:53.552Z,53.05
2023-05-22T13:43:22.008Z,52.13
2023-05-22T13:45:51.882Z,53.91
2023-05-22T13:48:20.292Z,52.79
2023-05-22T13:50:49.107Z,52.06
2023-05-22T13:53:18.458Z,59.87
2023-05-22T13:55:47.530Z,56.56
2023-05-22T13:58:16.813Z,57.32
2023-05-22T14:00:46.554Z,59.65
2023-05-22T14:03:20.261Z,60.91
2023-05-22T14:05:50.493Z,60.11
2023-05-22T14:08:19.809Z,58.99
2023-05-22T14:10:49.451Z,57.94
2023-05-22T14:13:19.958Z,58.77
2023-05-22T14:15:49.170Z,57.70
2023-05-22T14:18:18.944Z,58.50
2023-05-22T14:20:47.759Z,58.59
2023-05-22T14:23:16.449Z,59.34
2023-05-22T14:25:44.750Z,62.56
2023-05-22T14:28:13.940Z,64.80
2023-05-22T14:30:42.504Z,66.24
2023-05-22T14:33:11.473Z,67.60
2023-05-22T14:35:41.546Z,66.13
2023-05-22T14:38:10.180Z,66.62
2023-05-22T14:40:38.475Z,67.31
2023-05-22T14:43:06.894Z,68.00
2023-05-22T14:45:35.283Z,68.06
2023-05-22T14:48:04.826Z,69.25
2023-05-22T14:50:33.186Z,70.49
2023-05-22T14:53:02.835Z,71.57
2023-05-22T14:55:31.800Z,72.39
2023-05-22T14:58:00.208Z,72.21
2023-05-22T15:00:29.973Z,72.01
2023-05-22T15:02:58.419Z,70.97
2023-05-22T15:05:27.176Z,68.64
2023-05-22T15:07:58.437Z,70.77
2023-05-22T15:10:28.229Z,76.81
2023-05-22T15:12:56.612Z,82.06
2023-05-22T15:15:25.088Z,82.49
2023-05-22T15:17:53.490Z,85.19
2023-05-22T15:20:22.271Z,87.94
2023-05-22T15:22:50.624Z,87.81
2023-05-22T15:25:18.989Z,88.75
2023-05-22T15:27:48.910Z,91.79
2023-05-22T15:30:19.088Z,88.25
2023-05-22T15:32:48.882Z,89.29
2023-05-22T15:35:17.322Z,90.95
2023-05-22T15:37:46.577Z,94.55
2023-05-22T15:40:18.434Z,89.93
2023-05-22T15:42:48.101Z,92.24
2023-05-22T15:45:16.556Z,93.72
2023-05-22T15:47:44.879Z,94.44
2023-05-22T15:50:13.279Z,91.91
2023-05-22T15:52:41.687Z,91.24
2023-05-22T15:55:10.158Z,92.05
2023-05-22T15:57:38.686Z,90.86
2023-05-22T16:00:09.839Z,91.71
2023-05-22T16:02:38.242Z,90.88
2023-05-22T16:05:07.081Z,93.91
2023-05-22T16:07:35.347Z,93.47
2023-05-22T16:10:04.029Z,94.10
2023-05-22T16:12:32.339Z,92.24
2023-05-22T16:15:01.285Z,92.60
2023-05-22T16:17:33.295Z,93.54
2023-05-22T16:20:05.666Z,95.92
2023-05-22T16:22:47.458Z,98.86
2023-05-22T16:25:19.108Z,100.00
2023-05-22T16:27:49.295Z,100.00
2023-05-22T16:30:19.327Z,100.00
2023-05-22T16:32:50.931Z,100.00
2023-05-22T16:35:22.495Z,99.72
2023-05-22T16:37:52.945Z,100.00
2023-05-22T16:40:22.924Z,100.00
2023-05-22T16:42:53.246Z,98.43
2023-05-22T16:45:23.485Z,99.28
2023-05-22T16:47:56.106Z,100.00
2023-05-22T16:50:24.871Z,100.00
2023-05-22T16:52:53.141Z,100.00
2023-05-22T16:55:21.758Z,100.00
2023-05-22T16:57:50.242Z,100.00
2023-05-22T17:00:19.639Z,100.00
2023-05-22T17:02:48.455Z,100.00
2023-05-22T17:05:18.334Z,100.00
2023-05-22T17:07:47.081Z,100.00
2023-05-22T17:10:15.513Z,98.44
2023-05-22T17:12:43.772Z,97.42
2023-05-22T17:15:13.195Z,98.70
2023-05-22T17:17:41.548Z,100.00
2023-05-22T17:20:11.780Z,100.00
2023-05-22T17:22:41.518Z,100.00
2023-05-22T17:25:10.927Z,100.00
2023-05-22T17:27:39.275Z,100.00
2023-05-22T17:30:09.674Z,100.00
2023-05-22T17:32:38.744Z,100.00
2023-05-22T17:35:07.770Z,100.00
2023-05-22T17:37:36.203Z,100.00
2023-05-22T17:40:06.737Z,100.00
2023-05-22T17:42:35.190Z,100.00
2023-05-22T17:45:03.591Z,100.00
2023-05-22T17:47:32.967Z,100.00
2023-05-22T17:50:02.130Z,100.00
2023-05-22T17:52:30.529Z,100.00
2023-05-22T17:54:58.895Z,100.00
2023-05-22T17:57:28.715Z,100.00
2023-05-22T17:59:57.013Z,100.00
2023-05-22T18:02:26.617Z,100.00
2023-05-22T18:04:55.003Z,100.00
2023-05-22T18:07:23.495Z,100.00
2023-05-22T18:09:51.859Z,100.00
2023-05-22T18:14:53.082Z,100.00
2023-05-22T18:17:21.430Z,100.00
2023-05-22T18:19:49.802Z,100.00
2023-05-22T18:22:18.205Z,100.00
2023-05-22T18:24:46.632Z,100.00
2023-05-22T18:27:15.948Z,100.00
2023-05-22T18:29:44.329Z,100.00
2023-05-22T18:32:14.103Z,100.00
2023-05-22T18:34:42.455Z,100.00
2023-05-22T18:37:11.031Z,100.00
2023-05-22T18:39:39.413Z,100.00
2023-05-22T18:42:08.051Z,100.00
2023-05-22T18:44:36.425Z,100.00
2023-05-22T18:47:05.203Z,100.00
2023-05-22T18:49:35.104Z,100.00
2023-05-22T18:52:03.632Z,100.00
2023-05-22T18:54:32.122Z,100.00
2023-05-22T18:57:00.466Z,100.00
2023-05-22T18:59:28.831Z,100.00
2023-05-22T19:01:57.211Z,100.00
2023-05-22T19:04:25.953Z,100.00
2023-05-22T19:06:56.491Z,100.00
2023-05-22T19:09:25.809Z,100.00
2023-05-22T19:11:54.174Z,100.00
2023-05-22T19:14:22.507Z,100.00
2023-05-22T19:16:50.895Z,100.00
2023-05-22T19:19:19.383Z,100.00
2023-05-22T19:21:47.834Z,100.00
2023-05-22T19:24:17.524Z,100.00
2023-05-22T19:26:45.956Z,100.00
2023-05-22T19:29:14.279Z,100.00
2023-05-22T19:31:42.778Z,100.00
2023-05-22T19:34:11.075Z,100.00
2023-05-22T19:36:39.238Z,100.00
2023-05-22T19:39:07.498Z,100.00
2023-05-22T19:41:37.112Z,100.00
2023-05-22T19:44:05.784Z,100.00
2023-05-22T19:46:34.145Z,100.00
2023-05-22T19:49:02.541Z,100.00
2023-05-22T19:51:31.156Z,100.00
2023-05-22T19:53:59.405Z,100.00
2023-05-22T19:56:28.275Z,100.00
2023-05-22T19:58:57.933Z,100.00
2023-05-22T20:01:26.259Z,100.00
2023-05-22T20:03:56.319Z,100.00
2023-05-22T20:06:24.776Z,100.00
2023-05-22T20:08:53.034Z,100.00
2023-05-22T20:11:21.702Z,100.00
2023-05-22T20:13:49.962Z,100.00
2023-05-22T20:16:19.805Z,100.00
2023-05-22T20:18:48.767Z,100.00
2023-05-22T20:21:17.072Z,100.00
2023-05-22T20:23:45.285Z,100.00
2023-05-22T20:26:13.565Z,100.00
2023-05-22T20:28:41.846Z,100.00
2023-05-22T20:31:10.137Z,100.00
2023-05-22T20:33:39.794Z,100.00
2023-05-22T20:36:08.730Z,100.00
2023-05-22T20:38:37.058Z,100.00
2023-05-22T20:41:08.085Z,100.00
2023-05-22T20:43:37.470Z,100.00
2023-05-22T20:46:06.070Z,100.00
2023-05-22T20:48:34.359Z,100.00
2023-05-22T20:51:04.006Z,100.00
2023-05-22T20:53:32.414Z,100.00
2023-05-22T20:56:00.671Z,100.00
2023-05-22T20:58:28.897Z,100.00
2023-05-22T21:00:57.739Z,100.00
2023-05-22T21:03:26.218Z,100.00
2023-05-22T21:05:54.906Z,100.00
2023-05-22T21:08:24.557Z,100.00
2023-05-22T21:10:52.901Z,100.00
2023-05-22T21:13:21.244Z,100.00
2023-05-22T21:15:49.667Z,100.00
2023-05-22T21:18:19.707Z,100.00
2023-05-22T21:20:48.017Z,100.00
2023-05-22T21:23:16.276Z,100.00
2023-05-22T21:25:45.973Z,100.00
2023-05-22T21:28:14.203Z,100.00
2023-05-22T21:30:42.575Z,100.00
2023-05-22T21:33:11.374Z,100.00
2023-05-22T21:35:39.702Z,100.00
2023-05-22T21:38:07.957Z,100.00
2023-05-22T21:40:36.214Z,100.00
2023-05-22T21:43:05.936Z,100.00
2023-05-22T21:45:34.276Z,100.00
2023-05-22T21:48:02.517Z,100.00
2023-05-22T21:50:30.886Z,100.00
2023-05-22T21:52:59.078Z,100.00
2023-05-22T21:55:27.338Z,100.00
2023-05-22T21:57:56.634Z,100.00
2023-05-22T22:00:28.571Z,100.00
2023-05-22T22:02:58.358Z,100.00
2023-05-22T22:05:27.666Z,100.00
2023-05-22T22:07:55.923Z,100.00
2023-05-22T22:10:24.304Z,100.00
2023-05-22T22:12:52.612Z,100.00
2023-05-22T22:15:21.818Z,100.00
2023-05-22T22:17:52.315Z,100.00
2023-05-22T22:20:30.389Z,100.00
2023-05-22T22:23:08.129Z,100.00
2023-05-22T22:25:36.428Z,100.00
2023-05-22T22:28:04.680Z,100.00
2023-05-22T22:30:33.092Z,100.00
2023-05-22T22:33:02.999Z,100.00
2023-05-22T22:35:31.757Z,100.00
2023-05-22T22:38:00.007Z,100.00
2023-05-22T22:40:28.317Z,100.00
2023-05-22T22:42:56.617Z,100.00
2023-05-22T22:45:25.083Z,100.00
2023-05-22T22:47:56.495Z,100.00
2023-05-22T22:50:26.257Z,100.00
2023-05-22T22:52:54.585Z,100.00
2023-05-22T22:55:23.085Z,100.00
2023-05-22T22:57:51.663Z,100.00
2023-05-22T23:00:20.262Z,100.00
2023-05-22T23:02:48.660Z,100.00
2023-05-22T23:05:20.196Z,100.00
2023-05-22T23:07:50.399Z,100.00
2023-05-22T23:10:18.883Z,100.00
2023-05-22T23:12:50.100Z,100.00
2023-05-22T23:15:18.568Z,100.00
2023-05-22T23:17:47.329Z,100.00
2023-05-22T23:20:16.864Z,100.00
2023-05-22T23:22:45.217Z,100.00
2023-05-22T23:25:14.862Z,100.00
2023-05-22T23:27:43.285Z,100.00
2023-05-22T23:30:12.249Z,100.00
2023-05-22T23:32:40.493Z,100.00
2023-05-22T23:35:11.167Z,100.00
2023-05-22T23:42:02.203Z,100.00
2023-05-22T23:44:31.002Z,100.00
2023-05-22T23:46:59.380Z,100.00
2023-05-22T23:49:27.950Z,100.00
2023-05-22T23:51:56.236Z,100.00
2023-05-22T23:54:24.475Z,100.00
2023-05-22T23:56:52.945Z,100.00
2023-05-22T23:59:22.641Z,100.00
